createdAt,value
2017-07-04T00:01:43.211Z,6.24
2017-07-04T00:04:12.567Z,10.56
2017-07-04T00:06:40.890Z,10.84
2017-07-04T00:09:09.187Z,6.52
2017-07-04T00:11:37.483Z,10.06
2017-07-04T00:14:05.785Z,8.50
2017-07-04T00:16:34.100Z,7.92
2017-07-04T00:19:02.421Z,11.10
2017-07-04T00:21:30.694Z,9.52
2017-07-04T00:23:59.085Z,8.26
2017-07-04T00:26:27.367Z,13.74
2017-07-04T00:28:55.689Z,13.84
2017-07-04T00:31:23.960Z,8.82
2017-07-04T00:33:53.171Z,8.34
2017-07-04T00:36:21.485Z,10.66
2017-07-04T00:38:50.806Z,9.12
2017-07-04T00:41:19.082Z,10.62
2017-07-04T00:43:51.251Z,12.72
2017-07-04T00:46:19.531Z,11.24
2017-07-04T00:48:47.808Z,6.96
2017-07-04T00:51:16.141Z,9.50
2017-07-04T00:53:44.417Z,14.50
2017-07-04T00:56:11.925Z,7.92
2017-07-04T00:58:43.967Z,13.26
2017-07-04T01:01:12.242Z,10.50
2017-07-04T01:03:40.561Z,22.22
2017-07-04T01:06:08.840Z,13.04
2017-07-04T01:08:37.115Z,8.28
2017-07-04T01:11:05.421Z,8.70
2017-07-04T01:13:33.793Z,11.06
2017-07-04T01:16:02.116Z,8.50
2017-07-04T01:18:31.449Z,13.26
2017-07-04T01:20:59.721Z,9.58
2017-07-04T01:23:28.034Z,15.52
2017-07-04T01:25:56.305Z,14.66
2017-07-04T01:28:24.577Z,12.38
2017-07-04T01:30:52.880Z,13.42
2017-07-04T01:33:21.209Z,18.40
2017-07-04T01:35:49.472Z,17.80
2017-07-04T01:38:18.721Z,17.96
2017-07-04T01:40:47.000Z,9.32
2017-07-04T01:43:15.330Z,14.98
2017-07-04T01:45:43.633Z,11.62
2017-07-04T01:48:12.943Z,7.60
2017-07-04T01:50:41.253Z,10.00
2017-07-04T01:53:09.570Z,10.82
2017-07-04T01:55:37.884Z,7.38
2017-07-04T01:58:06.152Z,11.58
2017-07-04T02:00:34.458Z,9.40
2017-07-04T02:03:04.716Z,10.60
2017-07-04T02:05:33.021Z,8.30
2017-07-04T02:08:01.284Z,13.00
2017-07-04T02:10:29.549Z,12.46
2017-07-04T02:12:57.848Z,9.86
2017-07-04T02:15:26.124Z,7.96
2017-07-04T02:17:54.433Z,19.10
2017-07-04T02:20:22.709Z,11.86
2017-07-04T02:22:50.995Z,9.38
2017-07-04T02:25:19.270Z,11.18
2017-07-04T02:27:47.617Z,12.02
2017-07-04T02:30:15.898Z,10.60
2017-07-04T02:32:45.184Z,9.62
2017-07-04T02:35:13.448Z,11.42
2017-07-04T02:37:41.860Z,12.86
2017-07-04T02:40:10.130Z,11.94
2017-07-04T02:42:38.401Z,14.10
2017-07-04T02:45:06.696Z,9.16
2017-07-04T02:47:35.024Z,10.36
2017-07-04T02:50:03.321Z,9.86
2017-07-04T02:52:31.675Z,12.40
2017-07-04T02:55:00.009Z,12.56
2017-07-04T02:57:28.290Z,8.50
2017-07-04T02:59:56.567Z,13.22
2017-07-04T03:02:24.875Z,14.92
2017-07-04T03:04:53.154Z,10.16
2017-07-04T03:07:21.465Z,10.34
2017-07-04T03:09:49.752Z,10.24
2017-07-04T03:12:18.098Z,12.32
2017-07-04T03:14:46.378Z,12.12
2017-07-04T03:17:14.656Z,11.78
2017-07-04T03:19:42.203Z,16.30
2017-07-04T03:22:10.481Z,11.50
2017-07-04T03:24:38.793Z,11.24
2017-07-04T03:27:07.190Z,19.44
2017-07-04T03:29:35.494Z,9.64
2017-07-04T03:32:03.770Z,12.44
2017-07-04T03:34:33.135Z,12.50
2017-07-04T03:37:01.410Z,11.78
2017-07-04T03:39:28.961Z,11.78
2017-07-04T03:41:57.243Z,13.72
2017-07-04T03:44:25.562Z,9.02
2017-07-04T03:46:53.832Z,9.86
2017-07-04T03:49:22.140Z,12.60
2017-07-04T03:51:50.432Z,19.38
2017-07-04T03:54:18.716Z,10.50
2017-07-04T03:56:47.035Z,10.38
2017-07-04T03:59:15.313Z,14.98
2017-07-04T04:01:43.596Z,8.98
2017-07-04T04:04:11.905Z,14.06
2017-07-04T04:06:40.184Z,10.26
2017-07-04T04:09:08.503Z,10.50
2017-07-04T04:11:36.772Z,11.42
2017-07-04T04:14:05.046Z,21.06
2017-07-04T04:16:33.366Z,13.64
2017-07-04T04:19:03.620Z,11.78
2017-07-04T04:21:31.923Z,10.88
2017-07-04T04:24:01.182Z,11.94
2017-07-04T04:26:29.472Z,13.42
2017-07-04T04:28:58.760Z,10.08
2017-07-04T04:31:27.065Z,11.50
2017-07-04T04:33:55.338Z,12.94
2017-07-04T04:36:23.624Z,12.58
2017-07-04T04:38:51.932Z,12.30
2017-07-04T04:41:20.212Z,12.58
2017-07-04T04:43:48.553Z,16.86
2017-07-04T04:46:16.830Z,11.66
2017-07-04T04:48:45.126Z,12.52
2017-07-04T04:51:13.411Z,17.60
2017-07-04T04:53:42.790Z,11.22
2017-07-04T04:56:11.066Z,15.74
2017-07-04T04:58:40.466Z,16.40
2017-07-04T05:01:08.749Z,15.24
2017-07-04T05:03:37.027Z,13.26
2017-07-04T05:06:05.346Z,12.82
2017-07-04T05:08:33.636Z,13.74
2017-07-04T05:11:01.961Z,13.82
2017-07-04T05:13:30.271Z,20.44
2017-07-04T05:15:58.547Z,14.62
2017-07-04T05:18:26.841Z,22.16
2017-07-04T05:20:55.121Z,17.46
2017-07-04T05:23:23.420Z,12.38
2017-07-04T05:25:52.728Z,10.22
2017-07-04T05:28:21.010Z,15.16
2017-07-04T05:30:49.316Z,13.00
2017-07-04T05:33:23.173Z,12.22
2017-07-04T05:35:51.481Z,14.02
2017-07-04T05:38:20.745Z,13.74
2017-07-04T05:40:49.044Z,12.38
2017-07-04T05:43:17.395Z,12.38
2017-07-04T05:45:44.936Z,13.00
2017-07-04T05:48:13.242Z,14.06
2017-07-04T05:50:42.541Z,16.18
2017-07-04T05:53:10.838Z,10.42
2017-07-04T05:55:39.120Z,18.76
2017-07-04T05:58:07.449Z,13.24
2017-07-04T06:00:35.731Z,14.10
2017-07-04T06:03:04.020Z,17.50
2017-07-04T06:05:32.345Z,18.36
2017-07-04T06:08:00.855Z,17.06
2017-07-04T06:10:29.205Z,15.20
2017-07-04T06:12:57.523Z,13.80
2017-07-04T06:15:25.855Z,15.00
2017-07-04T06:17:54.182Z,16.48
2017-07-04T06:20:22.488Z,11.98
2017-07-04T06:22:50.842Z,23.20
2017-07-04T06:25:19.152Z,16.82
2017-07-04T06:27:47.490Z,19.40
2017-07-04T06:30:15.917Z,22.02
2017-07-04T06:32:44.233Z,14.82
2017-07-04T06:35:12.527Z,23.44
2017-07-04T06:37:40.858Z,20.54
2017-07-04T06:40:09.157Z,18.82
2017-07-04T06:42:37.488Z,18.62
2017-07-04T06:45:05.766Z,20.02
2017-07-04T06:47:34.125Z,18.58
2017-07-04T06:50:02.874Z,26.56
2017-07-04T06:52:31.176Z,21.40
2017-07-04T06:54:59.496Z,28.72
2017-07-04T06:57:27.784Z,30.58
2017-07-04T06:59:56.092Z,25.86
2017-07-04T07:02:24.384Z,31.18
2017-07-04T07:04:52.664Z,26.60
2017-07-04T07:07:20.980Z,31.44
2017-07-04T07:09:49.253Z,25.04
2017-07-04T07:12:17.586Z,22.94
2017-07-04T07:14:45.142Z,22.20
2017-07-04T07:17:13.414Z,17.70
2017-07-04T07:19:41.776Z,17.72
2017-07-04T07:22:10.053Z,14.88
2017-07-04T07:24:38.371Z,17.70
2017-07-04T07:27:06.689Z,20.18
2017-07-04T07:29:34.965Z,23.64
2017-07-04T07:32:03.253Z,26.18
2017-07-04T07:34:31.567Z,15.62
2017-07-04T07:36:59.925Z,19.40
2017-07-04T07:39:28.201Z,20.42
2017-07-04T07:41:56.470Z,15.98
2017-07-04T07:44:24.774Z,14.14
2017-07-04T07:46:53.058Z,20.76
2017-07-04T07:49:21.373Z,17.54
2017-07-04T07:51:49.658Z,22.86
2017-07-04T07:54:17.955Z,24.78
2017-07-04T07:56:45.509Z,25.62
2017-07-04T07:59:13.794Z,23.16
2017-07-04T08:01:42.072Z,23.52
2017-07-04T08:04:10.376Z,21.32
2017-07-04T08:06:38.689Z,18.22
2017-07-04T08:09:06.966Z,23.18
2017-07-04T08:11:35.237Z,19.42
2017-07-04T08:14:03.584Z,27.48
2017-07-04T08:16:31.981Z,25.28
2017-07-04T08:19:00.344Z,21.56
2017-07-04T08:21:28.670Z,25.12
2017-07-04T08:23:57.449Z,26.28
2017-07-04T08:26:25.736Z,27.16
2017-07-04T08:28:54.011Z,27.56
2017-07-04T08:31:22.327Z,29.98
2017-07-04T08:33:50.600Z,25.00
2017-07-04T08:36:18.917Z,31.92
2017-07-04T08:38:47.201Z,28.08
2017-07-04T08:41:15.500Z,35.68
2017-07-04T08:43:44.188Z,30.58
2017-07-04T08:46:12.462Z,27.56
2017-07-04T08:48:40.755Z,39.70
2017-07-04T08:51:09.062Z,27.74
2017-07-04T08:53:37.381Z,33.64
2017-07-04T08:56:05.658Z,38.10
2017-07-04T08:58:33.978Z,29.70
2017-07-04T09:01:02.260Z,28.60
2017-07-04T09:03:30.551Z,24.80
2017-07-04T09:05:58.856Z,29.90
2017-07-04T09:08:27.129Z,26.38
2017-07-04T09:10:55.452Z,26.62
2017-07-04T09:13:23.729Z,26.98
2017-07-04T09:15:52.016Z,28.42
2017-07-04T09:18:20.323Z,23.04
2017-07-04T09:20:47.877Z,24.26
2017-07-04T09:23:16.161Z,21.30
2017-07-04T09:25:44.442Z,20.44
2017-07-04T09:28:12.761Z,23.16
2017-07-04T09:30:41.049Z,23.54
2017-07-04T09:33:09.365Z,29.06
2017-07-04T09:35:37.676Z,27.92
2017-07-04T09:38:05.958Z,24.16
2017-07-04T09:40:34.273Z,21.44
2017-07-04T09:43:02.570Z,28.86
2017-07-04T09:45:30.843Z,24.98
2017-07-04T09:47:59.167Z,28.70
2017-07-04T09:50:27.499Z,27.24
2017-07-04T09:52:55.783Z,27.70
2017-07-04T09:55:24.070Z,22.46
2017-07-04T09:57:52.401Z,19.80
2017-07-04T10:00:20.684Z,21.88
2017-07-04T10:02:48.965Z,24.32
2017-07-04T10:05:17.305Z,20.70
2017-07-04T10:07:45.591Z,20.64
2017-07-04T10:10:13.875Z,19.46
2017-07-04T10:12:42.200Z,23.10
2017-07-04T10:15:10.473Z,24.60
2017-07-04T10:17:38.803Z,26.84
2017-07-04T10:20:07.086Z,18.74
2017-07-04T10:22:35.368Z,18.62
2017-07-04T10:25:03.685Z,22.66
2017-07-04T10:27:32.000Z,17.56
2017-07-04T10:30:00.281Z,28.46
2017-07-04T10:32:28.560Z,22.60
2017-07-04T10:34:56.891Z,20.68
2017-07-04T10:37:25.187Z,23.02
2017-07-04T10:39:53.479Z,20.60
2017-07-04T10:42:21.788Z,23.42
2017-07-04T10:44:50.108Z,23.48
2017-07-04T10:47:18.390Z,25.64
2017-07-04T10:49:46.672Z,18.30
2017-07-04T10:52:14.972Z,19.12
2017-07-04T10:54:43.254Z,19.40
2017-07-04T10:57:11.602Z,17.84
2017-07-04T10:59:39.116Z,18.30
2017-07-04T11:02:07.415Z,17.74
2017-07-04T11:04:35.720Z,15.72
2017-07-04T11:07:04.000Z,18.04
2017-07-04T11:09:32.315Z,16.88
2017-07-04T11:12:00.593Z,20.84
2017-07-04T11:14:28.929Z,17.24
2017-07-04T11:16:57.204Z,22.14
2017-07-04T11:19:24.713Z,21.38
2017-07-04T11:21:56.180Z,17.68
2017-07-04T11:24:25.566Z,18.26
2017-07-04T11:26:53.845Z,17.42
2017-07-04T11:29:22.174Z,19.20
2017-07-04T11:31:50.445Z,19.96
2017-07-04T11:34:17.958Z,19.38
2017-07-04T11:36:45.484Z,14.86
2017-07-04T11:39:13.759Z,31.22
2017-07-04T11:41:42.094Z,19.88
2017-07-04T11:44:10.369Z,16.74
2017-07-04T11:46:38.651Z,21.92
2017-07-04T11:49:06.969Z,21.30
2017-07-04T11:51:35.262Z,17.90
2017-07-04T11:54:03.561Z,18.70
2017-07-04T11:56:31.845Z,24.32
2017-07-04T11:59:00.158Z,18.80
2017-07-04T12:01:28.428Z,19.80
2017-07-04T12:03:56.709Z,19.84
2017-07-04T12:06:25.026Z,21.22
2017-07-04T12:08:53.310Z,22.02
2017-07-04T12:11:21.588Z,25.18
2017-07-04T12:13:49.905Z,16.32
2017-07-04T12:16:18.180Z,26.96
2017-07-04T12:18:46.471Z,22.82
2017-07-04T12:21:15.481Z,16.26
2017-07-04T12:23:43.754Z,13.24
2017-07-04T12:26:11.258Z,16.54
2017-07-04T12:28:39.556Z,13.22
2017-07-04T12:31:07.843Z,25.24
2017-07-04T12:33:36.164Z,16.52
2017-07-04T12:36:04.446Z,16.78
2017-07-04T12:38:32.777Z,24.52
2017-07-04T12:41:01.069Z,27.84
2017-07-04T12:43:29.345Z,22.24
2017-07-04T12:45:57.654Z,21.56
2017-07-04T12:48:25.938Z,34.10
2017-07-04T12:50:54.248Z,23.56
2017-07-04T12:53:22.579Z,26.02
2017-07-04T12:55:50.866Z,36.12
2017-07-04T12:58:19.155Z,25.94
2017-07-04T13:00:47.485Z,33.08
2017-07-04T13:03:15.768Z,32.70
2017-07-04T13:05:44.041Z,25.34
2017-07-04T13:08:12.348Z,27.00
2017-07-04T13:10:40.629Z,23.68
2017-07-04T13:13:08.954Z,27.32
2017-07-04T13:15:37.245Z,26.10
2017-07-04T13:18:04.772Z,28.60
2017-07-04T13:20:33.081Z,22.00
2017-07-04T13:23:01.358Z,26.82
2017-07-04T13:25:29.692Z,24.50
2017-07-04T13:27:57.206Z,37.82
2017-07-04T13:30:25.481Z,27.12
2017-07-04T13:32:53.801Z,27.72
2017-07-04T13:35:22.081Z,34.44
2017-07-04T13:37:50.355Z,32.66
2017-07-04T13:40:18.671Z,24.74
2017-07-04T13:42:46.950Z,25.50
2017-07-04T13:45:15.257Z,30.46
2017-07-04T13:47:43.534Z,23.54
2017-07-04T13:50:11.818Z,28.68
2017-07-04T13:52:40.254Z,26.26
2017-07-04T13:55:08.534Z,25.84
2017-07-04T13:57:36.827Z,27.20
2017-07-04T14:00:05.149Z,26.32
2017-07-04T14:02:33.458Z,44.04
2017-07-04T14:05:01.776Z,26.62
2017-07-04T14:07:30.055Z,29.34
2017-07-04T14:09:58.340Z,29.44
2017-07-04T14:12:26.673Z,39.52
2017-07-04T14:14:54.954Z,29.22
2017-07-04T14:17:23.237Z,28.20
2017-07-04T14:19:51.557Z,27.14
2017-07-04T14:22:19.835Z,39.44
2017-07-04T14:24:48.130Z,29.68
2017-07-04T14:27:16.437Z,31.02
2017-07-04T14:29:44.777Z,27.04
2017-07-04T14:32:13.061Z,21.42
2017-07-04T14:34:41.361Z,25.54
2017-07-04T14:37:09.689Z,22.94
2017-07-04T14:39:37.981Z,28.62
2017-07-04T14:42:07.205Z,23.32
2017-07-04T14:44:35.513Z,26.18
2017-07-04T14:47:03.798Z,28.28
2017-07-04T14:49:32.110Z,22.62
2017-07-04T14:52:00.385Z,20.22
2017-07-04T14:54:27.896Z,25.52
2017-07-04T14:56:56.201Z,21.24
2017-07-04T14:59:24.474Z,22.12
2017-07-04T15:01:52.798Z,20.18
2017-07-04T15:04:21.077Z,22.52
2017-07-04T15:06:49.363Z,20.70
2017-07-04T15:09:17.694Z,17.48
2017-07-04T15:11:45.970Z,17.24
2017-07-04T15:14:14.278Z,15.76
2017-07-04T15:16:42.549Z,19.76
2017-07-04T15:19:10.851Z,20.66
2017-07-04T15:21:39.144Z,21.08
2017-07-04T15:24:07.459Z,21.40
2017-07-04T15:26:35.742Z,18.60
2017-07-04T15:29:04.019Z,17.68
2017-07-04T15:31:32.328Z,18.22
2017-07-04T15:34:00.612Z,18.40
2017-07-04T15:36:28.907Z,21.08
2017-07-04T15:38:57.182Z,19.18
2017-07-04T15:41:26.489Z,18.30
2017-07-04T15:43:54.772Z,18.76
2017-07-04T15:46:23.081Z,16.18
2017-07-04T15:48:51.385Z,16.04
2017-07-04T15:51:19.672Z,13.28
2017-07-04T15:53:47.972Z,14.28
2017-07-04T15:56:16.239Z,18.68
2017-07-04T15:58:44.549Z,16.22
2017-07-04T16:01:13.786Z,19.06
2017-07-04T16:03:42.100Z,15.44
2017-07-04T16:06:10.381Z,16.66
2017-07-04T16:08:38.686Z,14.88
2017-07-04T16:11:06.999Z,17.46
2017-07-04T16:13:35.296Z,16.38
2017-07-04T16:16:03.588Z,13.72
2017-07-04T16:18:31.854Z,16.14
2017-07-04T16:21:00.174Z,13.52
2017-07-04T16:23:28.452Z,22.30
2017-07-04T16:25:56.727Z,13.86
2017-07-04T16:28:25.016Z,19.48
2017-07-04T16:30:52.553Z,17.18
2017-07-04T16:33:21.789Z,18.68
2017-07-04T16:35:50.101Z,16.80
2017-07-04T16:38:18.378Z,22.48
2017-07-04T16:40:46.653Z,19.28
2017-07-04T16:43:14.949Z,19.50
2017-07-04T16:45:43.217Z,15.00
2017-07-04T16:48:11.517Z,14.86
2017-07-04T16:50:39.908Z,16.34
2017-07-04T16:53:08.205Z,15.02
2017-07-04T16:55:36.477Z,17.06
2017-07-04T16:58:04.021Z,15.72
2017-07-04T17:00:32.321Z,28.58
2017-07-04T17:03:00.623Z,22.06
2017-07-04T17:05:28.943Z,25.16
2017-07-04T17:07:57.221Z,21.40
2017-07-04T17:10:25.499Z,16.78
2017-07-04T17:12:53.808Z,15.70
2017-07-04T17:15:22.088Z,15.78
2017-07-04T17:17:50.390Z,18.24
2017-07-04T17:20:18.674Z,18.60
2017-07-04T17:22:46.974Z,17.72
2017-07-04T17:25:15.257Z,17.82
2017-07-04T17:27:43.571Z,18.76
2017-07-04T17:30:11.848Z,19.36
2017-07-04T17:32:40.144Z,15.32
2017-07-04T17:35:08.439Z,18.10
2017-07-04T17:37:36.737Z,24.42
2017-07-04T17:40:05.012Z,13.90
2017-07-04T17:42:33.316Z,18.78
2017-07-04T17:45:00.863Z,20.26
2017-07-04T17:47:29.162Z,18.52
2017-07-04T17:49:57.477Z,14.72
2017-07-04T17:52:25.766Z,17.16
2017-07-04T17:54:54.074Z,15.60
2017-07-04T17:57:22.366Z,19.54
2017-07-04T17:59:50.667Z,18.64
2017-07-04T18:02:18.953Z,17.16
2017-07-04T18:04:47.278Z,21.98
2017-07-04T18:07:15.554Z,16.64
2017-07-04T18:09:43.838Z,17.64
2017-07-04T18:12:12.145Z,18.74
2017-07-04T18:14:40.420Z,20.00
2017-07-04T18:17:08.734Z,16.14
2017-07-04T18:19:37.038Z,17.90
2017-07-04T18:22:06.249Z,15.76
2017-07-04T18:24:34.553Z,17.54
2017-07-04T18:27:02.845Z,18.24
2017-07-04T18:29:31.150Z,24.62
2017-07-04T18:31:59.465Z,18.58
2017-07-04T18:34:27.803Z,16.62
2017-07-04T18:36:56.093Z,18.26
2017-07-04T18:39:24.385Z,49.72
2017-07-04T18:41:52.702Z,46.46
2017-07-04T18:44:20.985Z,49.22
2017-07-04T18:46:49.287Z,29.84
2017-07-04T18:49:17.565Z,20.60
2017-07-04T18:51:45.863Z,20.90
2017-07-04T18:54:14.155Z,18.96
2017-07-04T18:56:42.473Z,26.26
2017-07-04T18:59:10.753Z,21.78
2017-07-04T19:01:39.029Z,19.76
2017-07-04T19:04:07.346Z,19.96
2017-07-04T19:06:35.633Z,20.20
2017-07-04T19:09:03.949Z,16.92
2017-07-04T19:11:32.232Z,26.54
2017-07-04T19:14:00.553Z,18.54
2017-07-04T19:16:28.838Z,27.14
2017-07-04T19:18:57.161Z,19.50
2017-07-04T19:21:25.445Z,19.14
2017-07-04T19:23:53.733Z,17.96
2017-07-04T19:26:22.059Z,19.40
2017-07-04T19:28:50.359Z,16.34
2017-07-04T19:31:18.670Z,17.08
2017-07-04T19:33:46.950Z,17.98
2017-07-04T19:36:15.273Z,19.46
2017-07-04T19:38:43.553Z,20.54
2017-07-04T19:41:11.829Z,22.36
2017-07-04T19:43:40.143Z,16.36
2017-07-04T19:46:08.413Z,17.54
2017-07-04T19:48:36.722Z,17.82
2017-07-04T19:51:05.001Z,19.56
2017-07-04T19:53:33.307Z,20.30
2017-07-04T19:56:01.588Z,23.56
2017-07-04T19:58:29.911Z,20.96
2017-07-04T20:00:58.192Z,19.48
2017-07-04T20:03:26.479Z,19.48
2017-07-04T20:05:54.811Z,18.38
2017-07-04T20:08:23.109Z,18.78
2017-07-04T20:10:51.430Z,25.40
2017-07-04T20:13:19.710Z,20.92
2017-07-04T20:15:47.993Z,19.10
2017-07-04T20:18:16.305Z,19.34
2017-07-04T20:20:44.593Z,24.16
2017-07-04T20:23:12.904Z,19.14
2017-07-04T20:25:41.213Z,18.42
2017-07-04T20:28:09.514Z,18.84
2017-07-04T20:30:37.829Z,19.54
2017-07-04T20:33:06.167Z,19.00
2017-07-04T20:35:34.486Z,20.38
2017-07-04T20:38:01.985Z,20.52
2017-07-04T20:40:30.302Z,20.26
2017-07-04T20:42:58.618Z,18.62
2017-07-04T20:45:26.896Z,20.58
2017-07-04T20:47:55.171Z,18.66
2017-07-04T20:50:23.481Z,21.60
2017-07-04T20:52:51.758Z,21.52
2017-07-04T20:55:20.057Z,20.88
2017-07-04T20:57:48.343Z,17.52
2017-07-04T21:00:16.658Z,23.52
2017-07-04T21:02:44.948Z,19.76
2017-07-04T21:05:13.238Z,18.96
2017-07-04T21:07:41.551Z,22.78
2017-07-04T21:10:09.833Z,19.32
2017-07-04T21:12:38.105Z,19.92
2017-07-04T21:15:06.393Z,18.28
2017-07-04T21:17:34.698Z,18.64
2017-07-04T21:20:03.018Z,15.80
2017-07-04T21:22:31.296Z,24.78
2017-07-04T21:24:59.573Z,18.92
2017-07-04T21:27:27.891Z,17.32
2017-07-04T21:29:56.171Z,15.94
2017-07-04T21:32:24.462Z,23.48
2017-07-04T21:34:52.789Z,21.44
2017-07-04T21:37:21.070Z,19.46
2017-07-04T21:39:49.344Z,20.04
2017-07-04T21:42:17.644Z,20.92
2017-07-04T21:44:45.925Z,20.30
2017-07-04T21:47:14.238Z,20.50
2017-07-04T21:49:42.524Z,20.86
2017-07-04T21:52:10.830Z,17.42
2017-07-04T21:54:39.106Z,22.96
2017-07-04T21:57:07.413Z,17.92
2017-07-04T21:59:35.706Z,19.16
2017-07-04T22:02:04.006Z,21.16
2017-07-04T22:04:32.273Z,18.28
2017-07-04T22:07:00.581Z,20.58
2017-07-04T22:09:28.856Z,23.38
2017-07-04T22:11:57.125Z,19.78
2017-07-04T22:14:25.438Z,17.32
2017-07-04T22:16:53.708Z,20.86
2017-07-04T22:19:22.020Z,18.50
2017-07-04T22:21:50.306Z,22.64
2017-07-04T22:24:18.576Z,21.00
2017-07-04T22:26:46.882Z,18.64
2017-07-04T22:29:15.157Z,20.50
2017-07-04T22:31:43.465Z,21.18
2017-07-04T22:34:11.766Z,24.34
2017-07-04T22:36:40.070Z,23.96
2017-07-04T22:39:08.358Z,19.08
2017-07-04T22:41:36.630Z,18.76
2017-07-04T22:44:04.941Z,18.50
2017-07-04T22:46:33.219Z,18.06
2017-07-04T22:49:01.506Z,21.76
2017-07-04T22:51:29.807Z,21.44
2017-07-04T22:53:58.089Z,20.58
2017-07-04T22:56:26.393Z,21.92
2017-07-04T22:58:54.667Z,20.74
2017-07-04T23:01:22.975Z,19.70
2017-07-04T23:03:51.244Z,21.76
2017-07-04T23:06:19.561Z,23.62
2017-07-04T23:08:47.840Z,23.42
2017-07-04T23:11:16.148Z,19.08
2017-07-04T23:13:44.421Z,23.72
2017-07-04T23:16:12.734Z,19.00
2017-07-04T23:18:41.014Z,19.06
2017-07-04T23:21:10.237Z,24.50
2017-07-04T23:23:38.537Z,22.76
2017-07-04T23:26:06.818Z,17.08
2017-07-04T23:28:35.118Z,23.46
2017-07-04T23:31:03.393Z,17.32
2017-07-04T23:33:31.701Z,19.54
2017-07-04T23:35:59.979Z,18.70
2017-07-04T23:38:28.249Z,18.66
2017-07-04T23:40:56.548Z,19.34
2017-07-04T23:43:24.848Z,16.28
2017-07-04T23:45:53.124Z,18.78
2017-07-04T23:48:21.434Z,18.36
2017-07-04T23:50:49.705Z,19.44
2017-07-04T23:53:18.015Z,20.60
2017-07-04T23:55:46.297Z,19.14
2017-07-04T23:58:14.593Z,25.30
